LFPM 100330Z AUTO 27008KT 9999 SCT018 OVC047 18/15 Q1014

Les avions qui composent notre flotte

Avion Robin DR400 2+2

L'avion école par excellence

F-GAVN
   * tarif promotionnel appliqué pendant la formation des élèves non brevetés


F-GAVN Planche